createdAt,value
2022-12-11T00:00:49.060Z,76.04
2022-12-11T00:03:17.039Z,75.26
2022-12-11T00:05:44.772Z,75.12
2022-12-11T00:08:12.488Z,74.62
2022-12-11T00:10:39.934Z,74.85
2022-12-11T00:13:07.060Z,75.27
2022-12-11T00:15:34.234Z,72.95
2022-12-11T00:18:01.718Z,72.44
2022-12-11T00:20:28.884Z,72.57
2022-12-11T00:22:56.071Z,72.59
2022-12-11T00:25:23.485Z,74.43
2022-12-11T00:27:50.614Z,73.66
2022-12-11T00:30:17.778Z,74.06
2022-12-11T00:32:45.275Z,75.14
2022-12-11T00:35:12.920Z,74.88
2022-12-11T00:37:40.451Z,74.39
2022-12-11T00:40:08.489Z,74.87
2022-12-11T00:42:35.618Z,75.34
2022-12-11T00:45:02.955Z,74.35
2022-12-11T00:47:30.450Z,75.49
2022-12-11T00:49:57.768Z,76.75
2022-12-11T00:52:24.893Z,76.02
2022-12-11T00:54:52.394Z,75.88
2022-12-11T00:57:19.556Z,75.58
2022-12-11T00:59:46.696Z,75.26
2022-12-11T01:02:14.349Z,74.99
2022-12-11T01:04:41.502Z,76.01
2022-12-11T01:07:08.638Z,76.76
2022-12-11T01:09:54.883Z,76.22
2022-12-11T01:12:22.020Z,76.41
2022-12-11T01:14:49.460Z,77.23
2022-12-11T01:17:16.600Z,76.16
2022-12-11T01:19:43.754Z,76.30
2022-12-11T01:22:11.529Z,74.41
2022-12-11T01:24:38.665Z,74.21
2022-12-11T01:27:05.869Z,74.12
2022-12-11T01:29:33.365Z,73.57
2022-12-11T01:32:00.577Z,75.51
2022-12-11T01:34:31.021Z,74.85
2022-12-11T01:36:58.458Z,73.90
2022-12-11T01:39:25.726Z,70.61
2022-12-11T01:41:56.894Z,72.23
2022-12-11T01:44:24.301Z,71.49
2022-12-11T01:46:51.460Z,72.31
2022-12-11T01:49:19.073Z,73.84
2022-12-11T01:51:51.967Z,72.07
2022-12-11T01:54:19.753Z,70.72
2022-12-11T01:56:47.266Z,72.50
2022-12-11T01:59:15.192Z,72.17
2022-12-11T02:01:51.154Z,73.27
2022-12-11T02:04:18.778Z,73.88
2022-12-11T02:06:46.963Z,72.51
2022-12-11T02:09:15.023Z,71.77
2022-12-11T02:11:45.555Z,73.83
2022-12-11T02:14:13.736Z,74.26
2022-12-11T02:16:44.058Z,75.19
2022-12-11T02:19:29.661Z,73.87
2022-12-11T02:21:57.720Z,73.86
2022-12-11T02:24:25.147Z,74.84
2022-12-11T02:27:11.908Z,74.71
2022-12-11T02:29:41.335Z,75.51
2022-12-11T02:32:22.236Z,74.19
2022-12-11T02:34:53.131Z,75.02
2022-12-11T02:37:20.633Z,76.18
2022-12-11T02:39:47.794Z,75.39
2022-12-11T02:42:16.368Z,76.03
2022-12-11T02:44:43.512Z,74.73
2022-12-11T02:47:11.680Z,74.78
2022-12-11T02:49:39.171Z,75.48
2022-12-11T02:52:06.401Z,75.75
2022-12-11T02:54:34.957Z,75.16
2022-12-11T02:57:04.845Z,75.07
2022-12-11T02:59:44.916Z,73.27
2022-12-11T03:02:12.880Z,76.31
2022-12-11T03:04:40.149Z,76.28
2022-12-11T03:07:12.409Z,75.48
2022-12-11T03:09:40.197Z,74.43
2022-12-11T03:12:12.068Z,74.52
2022-12-11T03:14:39.559Z,76.44
2022-12-11T03:17:20.260Z,76.32
2022-12-11T03:19:49.622Z,74.83
2022-12-11T03:22:18.023Z,73.55
2022-12-11T03:24:52.090Z,75.26
2022-12-11T03:27:19.511Z,77.51
2022-12-11T03:29:49.429Z,74.44
2022-12-11T03:32:20.044Z,74.52
2022-12-11T03:35:01.150Z,76.57
2022-12-11T03:37:29.069Z,77.69
2022-12-11T03:39:58.323Z,78.04
2022-12-11T03:42:26.090Z,76.07
2022-12-11T03:44:53.248Z,73.28
2022-12-11T03:47:21.363Z,75.05
2022-12-11T03:49:48.531Z,76.09
2022-12-11T03:52:15.703Z,76.58
2022-12-11T03:54:43.550Z,76.59
2022-12-11T03:57:12.134Z,76.94
2022-12-11T03:59:39.289Z,74.58
2022-12-11T04:02:11.030Z,72.17
2022-12-11T04:04:39.232Z,75.73
2022-12-11T04:07:06.745Z,74.80
2022-12-11T04:09:33.969Z,74.52
2022-12-11T04:12:01.389Z,74.99
2022-12-11T04:14:47.132Z,75.12
2022-12-11T04:17:34.519Z,74.67
2022-12-11T04:20:20.372Z,74.72
2022-12-11T04:23:06.484Z,75.60
2022-12-11T04:25:33.674Z,75.00
2022-12-11T04:28:01.107Z,75.79
2022-12-11T04:30:33.994Z,75.28
2022-12-11T04:33:02.147Z,75.43
2022-12-11T04:35:29.274Z,74.75
2022-12-11T04:37:56.463Z,75.32
2022-12-11T04:40:23.897Z,76.90
2022-12-11T04:42:51.309Z,75.18
2022-12-11T04:45:18.547Z,74.91
2022-12-11T04:47:45.990Z,75.85
2022-12-11T04:50:14.362Z,74.01
2022-12-11T04:52:41.919Z,74.61
2022-12-11T04:55:10.029Z,73.05
2022-12-11T04:57:37.414Z,74.55
2022-12-11T05:00:06.770Z,76.13
2022-12-11T05:02:34.919Z,75.87
2022-12-11T05:05:03.279Z,75.33
2022-12-11T05:07:30.440Z,75.85
2022-12-11T05:09:57.991Z,78.65
2022-12-11T05:12:25.119Z,77.54
2022-12-11T05:14:53.099Z,77.61
2022-12-11T05:17:20.824Z,77.72
2022-12-11T05:19:49.047Z,76.86
2022-12-11T05:22:16.895Z,77.21
2022-12-11T05:24:44.725Z,77.62
2022-12-11T05:27:12.055Z,76.58
2022-12-11T05:29:39.228Z,77.62
2022-12-11T05:32:06.729Z,75.12
2022-12-11T05:34:33.863Z,74.03
2022-12-11T05:37:01.489Z,76.57
2022-12-11T05:39:29.047Z,75.39
2022-12-11T05:41:56.344Z,77.11
2022-12-11T05:44:23.547Z,76.63
2022-12-11T05:46:51.039Z,77.31
2022-12-11T05:49:19.998Z,76.50
2022-12-11T05:51:47.391Z,76.27
2022-12-11T05:54:14.880Z,76.40
2022-12-11T05:56:42.032Z,77.30
2022-12-11T05:59:09.197Z,77.31
2022-12-11T06:01:38.020Z,76.82
2022-12-11T06:04:05.849Z,78.51
2022-12-11T06:06:33.061Z,78.28
2022-12-11T06:09:00.791Z,78.08
2022-12-11T06:11:29.465Z,77.69
2022-12-11T06:13:56.673Z,76.38
2022-12-11T06:16:23.912Z,78.09
2022-12-11T06:18:52.933Z,78.20
2022-12-11T06:21:23.944Z,77.43
2022-12-11T06:23:52.210Z,76.28
2022-12-11T06:26:19.650Z,77.44
2022-12-11T06:28:47.258Z,78.28
2022-12-11T06:31:15.689Z,77.76
2022-12-11T06:33:43.322Z,76.47
2022-12-11T06:36:11.426Z,76.51
2022-12-11T06:38:39.138Z,75.57
2022-12-11T06:41:07.050Z,77.03
2022-12-11T06:43:35.080Z,77.75
2022-12-11T06:46:06.382Z,77.42
2022-12-11T06:48:33.579Z,78.10
2022-12-11T06:51:04.907Z,77.77
2022-12-11T06:53:32.371Z,77.39
2022-12-11T06:56:06.512Z,77.53
2022-12-11T06:58:34.633Z,78.05
2022-12-11T07:01:02.304Z,77.94
2022-12-11T07:03:29.512Z,78.40
2022-12-11T07:06:01.105Z,78.64
2022-12-11T07:08:29.168Z,77.95
2022-12-11T07:11:01.906Z,78.27
2022-12-11T07:13:29.078Z,78.31
2022-12-11T07:15:57.763Z,75.39
2022-12-11T07:18:24.963Z,75.63
2022-12-11T07:20:52.175Z,74.39
2022-12-11T07:23:19.659Z,75.05
2022-12-11T07:25:46.859Z,73.95
2022-12-11T07:28:16.851Z,73.14
2022-12-11T07:30:44.421Z,72.79
2022-12-11T07:33:11.554Z,75.23
2022-12-11T07:35:38.687Z,72.95
2022-12-11T07:38:06.080Z,72.15
2022-12-11T07:40:33.470Z,73.44
2022-12-11T07:43:00.639Z,72.23
2022-12-11T07:45:28.178Z,71.77
2022-12-11T07:47:55.449Z,72.50
2022-12-11T07:50:22.820Z,69.19
2022-12-11T07:52:50.257Z,68.65
2022-12-11T07:55:17.672Z,71.11
2022-12-11T07:57:44.842Z,70.13
2022-12-11T08:00:12.446Z,70.74
2022-12-11T08:02:39.556Z,70.37
2022-12-11T08:05:07.765Z,70.58
2022-12-11T08:07:35.567Z,70.74
2022-12-11T08:10:03.763Z,70.52
2022-12-11T08:12:31.196Z,70.66
2022-12-11T08:14:58.370Z,70.31
2022-12-11T08:17:29.589Z,69.87
2022-12-11T08:19:59.271Z,68.17
2022-12-11T08:22:26.453Z,69.39
2022-12-11T08:24:53.595Z,71.01
2022-12-11T08:27:21.059Z,69.45
2022-12-11T08:29:48.657Z,69.62
2022-12-11T08:32:16.968Z,68.98
2022-12-11T08:34:44.496Z,68.99
2022-12-11T08:37:12.243Z,68.96
2022-12-11T08:39:39.384Z,71.29
2022-12-11T08:42:07.035Z,68.16
2022-12-11T08:44:34.193Z,67.76
2022-12-11T08:47:01.374Z,65.63
2022-12-11T08:49:34.166Z,66.73
2022-12-11T08:52:03.623Z,66.94
2022-12-11T08:54:31.199Z,67.68
2022-12-11T08:56:58.475Z,67.21
2022-12-11T08:59:25.871Z,65.82
2022-12-11T09:01:54.381Z,67.76
2022-12-11T09:04:21.817Z,67.27
2022-12-11T09:06:49.317Z,67.24
2022-12-11T09:09:16.746Z,68.15
2022-12-11T09:11:43.871Z,66.11
2022-12-11T09:14:11.069Z,65.72
2022-12-11T09:16:40.246Z,64.26
2022-12-11T09:19:08.445Z,64.15
2022-12-11T09:21:35.662Z,66.22
2022-12-11T09:24:03.389Z,65.93
2022-12-11T09:26:30.835Z,65.21
2022-12-11T09:28:58.211Z,65.42
2022-12-11T09:31:26.747Z,66.59
2022-12-11T09:33:55.133Z,66.45
2022-12-11T09:36:22.520Z,66.04
2022-12-11T09:38:49.975Z,66.46
2022-12-11T09:41:23.121Z,66.92
2022-12-11T09:44:06.258Z,66.40
2022-12-11T09:46:34.480Z,65.83
2022-12-11T09:49:02.300Z,66.66
2022-12-11T09:51:37.706Z,66.65
2022-12-11T09:54:05.148Z,66.93
2022-12-11T09:57:10.781Z,67.45
2022-12-11T09:59:43.884Z,68.15
2022-12-11T10:02:16.776Z,67.46
2022-12-11T10:04:59.209Z,68.08
2022-12-11T10:07:32.452Z,67.30
2022-12-11T10:09:59.839Z,66.18
2022-12-11T10:12:33.560Z,65.69
2022-12-11T10:15:14.423Z,64.82
2022-12-11T10:17:41.848Z,65.98
2022-12-11T10:20:20.734Z,64.33
2022-12-11T10:22:48.552Z,65.84
2022-12-11T10:25:22.161Z,65.27
2022-12-11T10:27:50.863Z,63.52
2022-12-11T10:30:18.437Z,63.11
2022-12-11T10:33:00.684Z,65.97
2022-12-11T10:35:30.230Z,64.00
2022-12-11T10:38:18.518Z,64.43
2022-12-11T10:41:06.250Z,65.05
2022-12-11T10:43:34.477Z,65.94
2022-12-11T10:46:02.032Z,65.10
2022-12-11T10:48:30.452Z,65.48
2022-12-11T10:50:59.068Z,66.60
2022-12-11T10:53:27.183Z,65.68
2022-12-11T10:55:54.917Z,65.59
2022-12-11T10:58:23.939Z,64.41
2022-12-11T11:01:03.457Z,64.42
2022-12-11T11:03:30.681Z,65.31
2022-12-11T11:06:05.493Z,64.41
2022-12-11T11:08:40.101Z,64.06
2022-12-11T11:11:14.199Z,64.30
2022-12-11T11:13:41.340Z,64.63
2022-12-11T11:16:11.713Z,64.12
2022-12-11T11:18:39.344Z,64.95
2022-12-11T11:21:06.551Z,62.42
2022-12-11T11:23:33.979Z,64.19
2022-12-11T11:26:01.703Z,63.87
2022-12-11T11:28:36.518Z,63.64
2022-12-11T11:31:05.671Z,64.48
2022-12-11T11:33:33.197Z,63.85
2022-12-11T11:36:04.614Z,65.90
2022-12-11T11:38:33.875Z,63.45
2022-12-11T11:41:11.588Z,63.54
2022-12-11T11:43:46.596Z,63.67
2022-12-11T11:46:18.505Z,63.29
2022-12-11T11:49:04.603Z,62.46
2022-12-11T11:51:39.045Z,62.89
2022-12-11T11:54:15.722Z,63.00
2022-12-11T11:56:42.954Z,61.57
2022-12-11T11:59:25.737Z,61.34
2022-12-11T12:01:54.178Z,61.47
2022-12-11T12:04:21.619Z,60.24
2022-12-11T12:06:55.716Z,61.03
2022-12-11T12:09:23.471Z,61.23
2022-12-11T12:11:57.048Z,61.78
2022-12-11T12:14:52.197Z,60.97
2022-12-11T12:17:26.039Z,60.08
2022-12-11T12:20:04.658Z,59.45
2022-12-11T12:22:41.025Z,59.14
2022-12-11T12:25:14.424Z,58.41
2022-12-11T12:28:03.392Z,58.36
2022-12-11T12:30:32.366Z,58.08
2022-12-11T12:32:59.501Z,60.20
2022-12-11T12:35:26.723Z,59.82
2022-12-11T12:38:09.492Z,61.02
2022-12-11T12:40:42.582Z,59.01
2022-12-11T12:43:28.781Z,60.37
2022-12-11T12:45:59.026Z,60.79
2022-12-11T12:48:26.527Z,59.30
2022-12-11T12:50:53.862Z,58.84
2022-12-11T12:53:23.247Z,58.88
2022-12-11T12:55:52.115Z,58.49
2022-12-11T12:58:25.585Z,59.82
2022-12-11T13:00:53.123Z,59.42
2022-12-11T13:03:27.028Z,58.72
2022-12-11T13:06:05.208Z,59.98
2022-12-11T13:08:35.753Z,58.44
2022-12-11T13:11:04.095Z,58.14
2022-12-11T13:13:41.459Z,59.31
2022-12-11T13:16:23.964Z,59.30
2022-12-11T13:18:51.317Z,57.85
2022-12-11T13:21:26.259Z,55.44
2022-12-11T13:23:53.589Z,55.50
2022-12-11T13:26:31.071Z,57.17
2022-12-11T13:28:58.500Z,55.70
2022-12-11T13:31:38.614Z,55.46
2022-12-11T13:34:14.502Z,59.10
2022-12-11T13:36:42.528Z,56.84
2022-12-11T13:39:17.451Z,58.56
2022-12-11T13:41:48.996Z,55.98
2022-12-11T13:44:18.626Z,56.74
2022-12-11T13:46:46.106Z,57.11
2022-12-11T13:49:30.119Z,57.42
2022-12-11T13:51:58.871Z,59.15
2022-12-11T13:54:26.744Z,56.58
2022-12-11T13:56:58.331Z,56.23
2022-12-11T13:59:33.652Z,58.24
2022-12-11T14:02:02.903Z,57.94
2022-12-11T14:04:30.466Z,56.32
2022-12-11T14:06:57.814Z,56.40
2022-12-11T14:09:26.521Z,55.71
2022-12-11T14:11:57.605Z,57.31
2022-12-11T14:14:43.902Z,54.06
2022-12-11T14:17:12.797Z,56.03
2022-12-11T14:19:39.975Z,55.79
2022-12-11T14:22:08.040Z,54.50
2022-12-11T14:24:35.600Z,56.02
2022-12-11T14:27:04.803Z,56.85
2022-12-11T14:29:32.956Z,54.49
2022-12-11T14:32:04.414Z,54.74
2022-12-11T14:34:35.319Z,54.05
2022-12-11T14:37:03.584Z,55.21
2022-12-11T14:39:57.138Z,54.79
2022-12-11T14:42:25.080Z,55.88
2022-12-11T14:44:53.970Z,58.07
2022-12-11T14:47:41.395Z,55.31
2022-12-11T14:50:19.888Z,55.86
2022-12-11T14:52:48.435Z,58.16
2022-12-11T14:55:16.878Z,56.81
2022-12-11T14:57:44.821Z,55.84
2022-12-11T15:00:25.472Z,55.33
2022-12-11T15:02:58.793Z,55.59
2022-12-11T15:05:26.104Z,55.75
2022-12-11T15:08:00.551Z,56.04
2022-12-11T15:10:36.187Z,58.85
2022-12-11T15:13:06.999Z,56.68
2022-12-11T15:15:38.942Z,56.13
2022-12-11T15:18:07.489Z,55.18
2022-12-11T15:20:34.670Z,52.85
2022-12-11T15:23:02.257Z,50.98
2022-12-11T15:25:29.649Z,53.64
2022-12-11T15:27:57.867Z,55.02
2022-12-11T15:30:29.098Z,57.40
2022-12-11T15:33:03.896Z,56.42
2022-12-11T15:35:31.122Z,54.60
2022-12-11T15:37:58.650Z,56.13
2022-12-11T15:40:25.854Z,54.51
2022-12-11T15:42:54.875Z,55.14
2022-12-11T15:45:23.831Z,54.52
2022-12-11T15:47:51.187Z,56.17
2022-12-11T15:50:23.402Z,55.48
2022-12-11T15:52:51.756Z,56.58
2022-12-11T15:55:19.431Z,54.25
2022-12-11T15:57:49.644Z,55.64
2022-12-11T16:00:18.818Z,55.35
2022-12-11T16:02:46.669Z,55.17
2022-12-11T16:05:14.797Z,56.33
2022-12-11T16:07:42.507Z,54.40
2022-12-11T16:10:14.081Z,56.69
2022-12-11T16:12:42.065Z,55.20
2022-12-11T16:15:10.531Z,55.49
2022-12-11T16:17:38.239Z,55.35
2022-12-11T16:20:05.904Z,54.86
2022-12-11T16:22:33.320Z,57.54
2022-12-11T16:25:00.451Z,55.85
2022-12-11T16:27:27.639Z,54.20
2022-12-11T16:29:55.115Z,53.71
2022-12-11T16:32:22.323Z,55.17
2022-12-11T16:34:49.518Z,53.62
2022-12-11T16:37:16.982Z,53.97
2022-12-11T16:39:46.027Z,54.57
2022-12-11T16:42:13.233Z,55.43
2022-12-11T16:44:43.995Z,54.30
2022-12-11T16:47:11.500Z,54.47
2022-12-11T16:49:39.167Z,54.22
2022-12-11T16:52:06.637Z,55.20
2022-12-11T16:54:33.819Z,55.28
2022-12-11T16:57:00.984Z,54.74
2022-12-11T16:59:31.118Z,55.11
2022-12-11T17:02:01.082Z,54.68
2022-12-11T17:04:28.801Z,55.44
2022-12-11T17:06:55.998Z,54.25
2022-12-11T17:09:23.218Z,54.75
2022-12-11T17:11:50.721Z,55.47
2022-12-11T17:14:19.137Z,52.77
2022-12-11T17:16:46.315Z,54.14
2022-12-11T17:19:14.088Z,56.54
2022-12-11T17:21:41.360Z,56.55
2022-12-11T17:24:08.824Z,55.06
2022-12-11T17:26:36.561Z,56.61
2022-12-11T17:29:03.805Z,56.94
2022-12-11T17:31:31.177Z,56.58
2022-12-11T17:34:00.661Z,58.84
2022-12-11T17:36:27.909Z,56.43
2022-12-11T17:38:55.165Z,55.63
2022-12-11T17:41:22.740Z,57.03
2022-12-11T17:43:50.560Z,56.36
2022-12-11T17:46:18.354Z,60.23
2022-12-11T17:48:45.873Z,57.27
2022-12-11T17:51:13.731Z,59.70
2022-12-11T17:53:41.012Z,57.97
2022-12-11T17:56:08.682Z,56.44
2022-12-11T17:58:35.883Z,58.83
2022-12-11T18:01:06.409Z,55.16
2022-12-11T18:03:34.019Z,57.76
2022-12-11T18:06:03.724Z,58.69
2022-12-11T18:08:31.039Z,58.34
2022-12-11T18:11:04.533Z,58.49
2022-12-11T18:13:31.858Z,57.93
2022-12-11T18:16:03.862Z,60.33
2022-12-11T18:18:31.101Z,60.36
2022-12-11T18:20:58.800Z,59.55
2022-12-11T18:23:26.336Z,59.60
2022-12-11T18:25:53.919Z,59.38
2022-12-11T18:28:21.319Z,58.84
2022-12-11T18:30:48.834Z,60.37
2022-12-11T18:33:16.191Z,57.80
2022-12-11T18:35:43.560Z,61.00
2022-12-11T18:38:11.088Z,61.47
2022-12-11T18:40:38.464Z,60.98
2022-12-11T18:43:05.627Z,59.64
2022-12-11T18:45:33.287Z,59.50
2022-12-11T18:48:00.729Z,58.26
2022-12-11T18:50:28.563Z,59.52
2022-12-11T18:52:58.220Z,59.17
2022-12-11T18:55:25.687Z,60.24
2022-12-11T18:57:53.422Z,60.68
2022-12-11T19:00:22.214Z,58.65
2022-12-11T19:02:52.717Z,59.10
2022-12-11T19:05:20.748Z,59.71
2022-12-11T19:07:49.284Z,58.73
2022-12-11T19:10:16.696Z,60.63
2022-12-11T19:12:43.999Z,60.97
2022-12-11T19:15:12.106Z,59.37
2022-12-11T19:17:39.593Z,59.56
2022-12-11T19:20:32.270Z,59.34
2022-12-11T19:22:54.856Z,58.63
2022-12-11T19:25:22.056Z,59.83
2022-12-11T19:27:50.502Z,62.15
2022-12-11T19:30:18.229Z,60.88
2022-12-11T19:32:46.349Z,61.40
2022-12-11T19:35:15.281Z,61.79
2022-12-11T19:37:42.790Z,59.36
2022-12-11T19:40:10.431Z,60.01
2022-12-11T19:42:37.808Z,60.30
2022-12-11T19:45:05.529Z,61.23
2022-12-11T19:47:32.724Z,60.39
2022-12-11T19:50:00.072Z,60.76
2022-12-11T19:52:27.836Z,63.74
2022-12-11T19:54:55.110Z,60.08
2022-12-11T19:57:22.472Z,61.11
2022-12-11T19:59:55.422Z,61.57
2022-12-11T20:02:24.818Z,61.16
2022-12-11T20:04:52.392Z,59.23
2022-12-11T20:07:19.871Z,61.44
2022-12-11T20:09:47.436Z,62.85
2022-12-11T20:12:14.909Z,59.98
2022-12-11T20:14:42.361Z,60.12
2022-12-11T20:17:12.985Z,61.07
2022-12-11T20:19:42.355Z,58.71
2022-12-11T20:22:09.807Z,60.07
2022-12-11T20:24:37.822Z,58.78
2022-12-11T20:27:05.400Z,59.36
2022-12-11T20:29:32.745Z,60.20
2022-12-11T20:32:00.470Z,61.00
2022-12-11T20:34:28.158Z,59.90
2022-12-11T20:36:56.325Z,59.42
2022-12-11T20:39:23.656Z,58.59
2022-12-11T20:41:51.272Z,56.23
2022-12-11T20:44:20.220Z,55.56
2022-12-11T20:46:47.603Z,58.89
2022-12-11T20:49:15.037Z,57.71
2022-12-11T20:51:42.424Z,57.34
2022-12-11T20:54:09.638Z,59.83
2022-12-11T20:56:37.194Z,58.79
2022-12-11T20:59:04.511Z,60.22
2022-12-11T21:01:32.129Z,61.51
2022-12-11T21:03:59.775Z,59.97
2022-12-11T21:06:31.144Z,60.68
2022-12-11T21:09:00.016Z,61.15
2022-12-11T21:11:27.677Z,61.35
2022-12-11T21:13:55.161Z,59.78
2022-12-11T21:16:22.379Z,59.28
2022-12-11T21:18:49.968Z,58.20
2022-12-11T21:21:17.652Z,60.01
2022-12-11T21:23:44.837Z,60.74
2022-12-11T21:26:12.705Z,60.96
2022-12-11T21:28:40.098Z,61.10
2022-12-11T21:31:08.390Z,61.07
2022-12-11T21:33:35.971Z,61.91
2022-12-11T21:36:03.599Z,62.61
2022-12-11T21:38:30.918Z,61.23
2022-12-11T21:41:06.139Z,60.57
2022-12-11T21:43:33.322Z,59.09
2022-12-11T21:46:01.988Z,60.51
2022-12-11T21:48:29.592Z,62.35
2022-12-11T21:51:04.193Z,61.16
2022-12-11T21:53:31.689Z,63.41
2022-12-11T21:55:58.893Z,61.29
2022-12-11T21:58:26.033Z,62.65
2022-12-11T22:00:53.862Z,63.04
2022-12-11T22:03:21.308Z,62.54
2022-12-11T22:05:48.454Z,62.43
2022-12-11T22:08:15.858Z,60.67
2022-12-11T22:10:43.438Z,61.51
2022-12-11T22:13:10.823Z,60.13
2022-12-11T22:15:38.078Z,59.14
2022-12-11T22:18:05.566Z,60.78
2022-12-11T22:20:32.718Z,61.62
2022-12-11T22:22:59.979Z,61.93
2022-12-11T22:25:27.400Z,64.11
2022-12-11T22:27:54.616Z,64.28
2022-12-11T22:30:21.759Z,62.66
2022-12-11T22:32:49.259Z,64.15
2022-12-11T22:35:16.440Z,62.94
2022-12-11T22:37:43.624Z,65.98
2022-12-11T22:40:11.107Z,61.19
2022-12-11T22:42:38.281Z,60.81
2022-12-11T22:45:05.721Z,60.32
2022-12-11T22:47:33.387Z,60.15
2022-12-11T22:50:00.581Z,61.24
2022-12-11T22:52:27.759Z,63.23
2022-12-11T22:54:55.334Z,63.54
2022-12-11T22:57:22.655Z,64.99
2022-12-11T22:59:49.840Z,64.87
2022-12-11T23:02:17.287Z,63.97
2022-12-11T23:04:44.845Z,64.49
2022-12-11T23:07:12.017Z,64.41
2022-12-11T23:09:39.464Z,65.00
2022-12-11T23:12:06.890Z,64.80
2022-12-11T23:14:34.075Z,67.54
2022-12-11T23:17:01.588Z,66.65
2022-12-11T23:19:28.819Z,67.11
2022-12-11T23:21:55.989Z,67.37
2022-12-11T23:24:23.514Z,64.93
2022-12-11T23:26:50.739Z,66.59
2022-12-11T23:29:18.205Z,66.96
2022-12-11T23:31:45.607Z,67.37
2022-12-11T23:34:12.809Z,64.67
2022-12-11T23:36:40.088Z,65.29
2022-12-11T23:39:07.882Z,63.72
2022-12-11T23:41:35.121Z,62.87
2022-12-11T23:44:03.425Z,64.47
2022-12-11T23:46:30.926Z,62.71
2022-12-11T23:48:58.195Z,64.63
2022-12-11T23:51:25.667Z,63.00
2022-12-11T23:53:53.479Z,61.43
2022-12-11T23:56:22.692Z,61.96
2022-12-11T23:58:49.981Z,59.81
